Buoy 55632

sailwx.info

Track history (hours):
 
Tides and Currents Weather Stations Pressure Air Temp Water Temp Dewpoint Dewpoint Depression Visibility Wind Speed Wind Dir Waves Ship Positions

Drifting buoy 55632

Last reported at 2017-Nov-21 17:00 UTC. Time now 2017-Nov-21 19:32 UTC.
Position S 21°02' E 151°35'.

Barometer 1008.9 mb
Water temperature 25.2 ° C

Date/timePositionNaut miles runAvg speedWind from/ knotsBaromVisibWave heightAir tempDewpointWater temp
2017-Nov-21 17:00S 21°02' E 151°35'1 0.6 1008.9 25.2
2017-Nov-21 16:00S 21°02' E 151°35'0 0.0 1009.3 25.4
2017-Nov-21 15:00S 21°02' E 151°35'2 0.6 1009.4 25.3
2017-Nov-21 12:00S 21°04' E 151°36'0 0.0 1012.0 25.6
2017-Nov-21 11:00S 21°04' E 151°36'1 0.3 1012.2 25.4
2017-Nov-21 09:00S 21°04' E 151°37'2 0.8 1011.9 25.5
2017-Nov-21 07:00S 21°03' E 151°38'1 0.6 1010.9 25.7
2017-Nov-21 06:00S 21°04' E 151°38'1 0.6 1011.1 25.8
2017-Nov-21 05:00S 21°04' E 151°38'1 0.6 1011.2 25.8
2017-Nov-21 04:00S 21°04' E 151°38'2 0.6 1011.5 25.8
2017-Nov-21 00:00S 21°06' E 151°38'1 0.6 1013.3 25.6
2017-Nov-20 23:00S 21°05' E 151°38'1 0.4 1013.3 25.6
2017-Nov-20 21:00S 21°05' E 151°39'1 0.8 1012.7 25.3
2017-Nov-20 20:00S 21°04' E 151°40'2 0.6 1012.1 25.5
2017-Nov-20 17:00S 21°04' E 151°41'0 0.0 1011.2 25.5
2017-Nov-20 16:00S 21°04' E 151°41'0 0.0 1011.7 25.6
2017-Nov-20 15:00S 21°04' E 151°41'4 1.3 1012.4 25.6
2017-Nov-20 12:00S 21°07' E 151°43'1 0.6 1013.5 25.5
2017-Nov-20 11:00S 21°07' E 151°43'0 0.0 1013.5 25.5
2017-Nov-20 10:00S 21°07' E 151°43'3 2.5 1013.5 25.5
2017-Nov-20 09:00S 21°06' E 151°46'0 0.0 1013.4 25.6
2017-Nov-20 08:00S 21°06' E 151°46'1 1.3 1012.9 25.8
2017-Nov-20 07:00S 21°05' E 151°46'1 1.3 1012.8 25.7
2017-Nov-20 06:00S 21°05' E 151°47'1 0.8 1012.2 25.6
2017-Nov-20 05:00S 21°06' E 151°48'6 6.2 1012.2 25.7
2017-Nov-20 04:00S 21°11' E 151°44'1 0.3 1012.7 25.6
2017-Nov-19 23:00S 21°12' E 151°44'0 0.0 1013.9 25.6
2017-Nov-19 22:00S 21°12' E 151°44'2 1.7 1013.8 25.6
2017-Nov-19 21:00S 21°12' E 151°46'1 1.1 1013.4 25.6
2017-Nov-19 20:00S 21°12' E 151°47'1 0.6 1012.7 25.6
2017-Nov-19 18:00S 21°12' E 151°49'0 0.0 1011.3 25.6
2017-Nov-19 17:00S 21°12' E 151°49'0 0.0 1011.4 25.6
2017-Nov-19 16:00S 21°12' E 151°49'1 0.6 1011.6 25.6
2017-Nov-19 15:00S 21°12' E 151°48'2 0.8 1011.9 25.6
2017-Nov-19 12:00S 21°14' E 151°47'2 2.1 1013.2 25.6
2017-Nov-19 11:00S 21°13' E 151°49'3 2.6 1013.4 25.6
2017-Nov-19 10:00S 21°11' E 151°50'2 2.1 1012.9 25.6
2017-Nov-19 09:00S 21°09' E 151°52'2 1.6 1012.6 25.6
2017-Nov-19 08:00S 21°08' E 151°53'1 0.6 1012.3 25.8
2017-Nov-19 06:00S 21°08' E 151°54'1 0.8 1010.9 25.6
2017-Nov-19 05:00S 21°08' E 151°55'0 0.0 1011.1 25.6
2017-Nov-19 04:00S 21°08' E 151°55'5 1.4 1011.7 25.6
2017-Nov-19 00:00S 21°14' E 151°55'2 1.9 1012.5 25.6
2017-Nov-18 23:00S 21°12' E 151°55'0 0.0 1012.6 25.7
2017-Nov-18 22:00S 21°12' E 151°55'3 2.6 1012.0 25.6
2017-Nov-18 21:00S 21°10' E 151°56'2 2.1 1011.9 25.6
2017-Nov-18 20:00S 21°08' E 151°58'1 0.6 1011.3 25.6
2017-Nov-18 19:00S 21°08' E 151°58'2 1.6 1010.5 25.6
2017-Nov-18 18:00S 21°09' E 151°59'0 0.0 1010.3 25.6
2017-Nov-18 17:00S 21°09' E 151°59'0 0.0 1010.0 25.6
2017-Nov-18 16:00S 21°09' E 151°59'3 0.7 1010.4 25.7
2017-Nov-18 12:00S 21°11' E 151°57'1 0.6 1012.4 25.6
2017-Nov-18 11:00S 21°11' E 151°56'2 2.4 1012.0 25.6
2017-Nov-18 10:00S 21°09' E 151°56'1 1.2 1011.8 25.7
2017-Nov-18 09:00S 21°08' E 151°56'3 2.6 1011.3 25.8
2017-Nov-18 08:00S 21°05' E 151°58'0 0.0 1011.0 25.8
2017-Nov-18 07:00S 21°05' E 151°58'1 0.8 1010.3 25.9
2017-Nov-18 06:00S 21°06' E 151°58'1 0.8 1010.0 26.1
2017-Nov-18 05:00S 21°05' E 151°59'0 0.0 1010.4 26.1
2017-Nov-18 04:00S 21°05' E 151°59'2 0.6 1010.9 26.1
2017-Nov-18 00:00S 21°07' E 151°57'0 0.0 1013.1 25.7
2017-Nov-17 23:00S 21°07' E 151°57'1 1.2 1013.0 25.7
2017-Nov-17 22:00S 21°06' E 151°57'0 0.0 1013.1 25.6
2017-Nov-17 21:00S 21°06' E 151°57'2 2.5 1012.7 25.6
2017-Nov-17 20:00S 21°04' E 151°58'1 0.6 1011.9 25.6
2017-Nov-17 19:00S 21°04' E 151°58'2 1.8 1011.2 25.6
2017-Nov-17 18:00S 21°03' E 152°00'0 0.0 1010.9 25.6
2017-Nov-17 17:00S 21°03' E 152°00'2 2.5 1010.7 25.6
2017-Nov-17 16:00S 21°05' E 152°01'0 0.0 1011.3 25.7
2017-Nov-17 12:00S 21°05' E 152°01'2 1.8 1012.9 25.6
2017-Nov-17 11:00S 21°04' E 152°01'0 0.0 1012.4 25.7
2017-Nov-17 10:00S 21°04' E 152°01'2 1.9 1012.4 25.7
2017-Nov-17 09:00S 21°02' E 152°01'2 0.8 1012.1 25.7
2017-Nov-17 07:00S 21°02' E 152°03'2 2.1 1012.1 25.8
2017-Nov-17 06:00S 21°01' E 152°05'0 0.0 1011.7 25.9
2017-Nov-17 05:00S 21°01' E 152°05'5 0.8 1012.2 25.9
2017-Nov-16 23:00S 21°04' E 152°08'1 1.3 1013.7 25.8
2017-Nov-16 22:00S 21°04' E 152°09'1 1.2 1013.3 -0.0
2017-Nov-16 21:00S 21°02' E 152°09'1 0.8 1013.3 25.7
2017-Nov-16 20:00S 21°02' E 152°10'3 1.0 1012.7 25.6
2017-Nov-16 17:00S 21°01' E 152°13'0 0.0 1012.0 25.6
2017-Nov-16 16:00S 21°01' E 152°13'1 0.2 1012.3 25.6
2017-Nov-16 11:00S 21°01' E 152°11'0 0.0 1013.8 25.7
2017-Nov-16 10:00S 21°01' E 152°11'2 1.6 1013.2 25.7
2017-Nov-16 09:00S 21°00' E 152°13'1 0.8 1013.0 25.7
2017-Nov-16 08:00S 20°59' E 152°13'1 1.3 1012.7 25.7
2017-Nov-16 07:00S 20°59' E 152°14'2 1.2 1012.1 25.8
2017-Nov-16 05:00S 20°59' E 152°12'2 0.3 1011.9 25.9
2017-Nov-16 00:00S 21°01' E 152°13'1 0.6 1013.6 25.9
2017-Nov-15 23:00S 21°01' E 152°14'1 0.4 1013.8 25.8
2017-Nov-15 21:00S 21°00' E 152°14'2 2.1 1013.1 25.8
2017-Nov-15 20:00S 20°59' E 152°16'0 0.0 1012.4 25.8
2017-Nov-15 19:00S 20°59' E 152°16'1 1.2 1012.1 25.7
2017-Nov-15 18:00S 20°58' E 152°16'2 1.8 1012.1 25.8
2017-Nov-15 17:00S 20°59' E 152°16'2 1.8 1012.1 25.8
2017-Nov-15 16:00S 20°58' E 152°16'2 0.4 1012.3 25.8
2017-Nov-15 12:00S 20°59' E 152°16'1 0.6 1014.8 25.8
2017-Nov-15 11:00S 20°59' E 152°16'1 0.6 1014.6 25.8
2017-Nov-15 10:00S 20°59' E 152°16'0 0.0 1014.0 25.8
2017-Nov-15 09:00S 20°59' E 152°16'3 2.9 1013.8 25.9
2017-Nov-15 08:00S 20°57' E 152°18'1 0.4 1013.3 25.9
2017-Nov-15 06:00S 20°58' E 152°19'0 0.0 1012.4 25.9
2017-Nov-15 05:00S 20°58' E 152°19'2 0.4 1012.5 25.9
2017-Nov-14 23:00S 21°00' E 152°18'1 0.6 1015.3 25.8
2017-Nov-14 22:00S 21°00' E 152°17'0 0.0 1014.9 25.8
2017-Nov-14 21:00S 21°00' E 152°17'3 3.3 1014.2 25.8
2017-Nov-14 20:00S 20°58' E 152°20'3 3.0 1013.6 25.8
2017-Nov-14 19:00S 20°56' E 152°23'3 1.3 1013.1 25.6
2017-Nov-14 17:00S 20°59' E 152°22'3 2.6 1012.6 25.8
2017-Nov-14 16:00S 20°56' E 152°23'3 0.7 1012.8 25.8
2017-Nov-14 12:00S 20°59' E 152°22'2 1.8 1015.9 25.8
2017-Nov-14 11:00S 20°59' E 152°20'1 1.3 1015.4 25.8
2017-Nov-14 10:00S 20°58' E 152°19'1 0.6 1015.0 25.8
2017-Nov-14 09:00S 20°58' E 152°20'2 2.5 1014.6 25.9
2017-Nov-14 08:00S 20°56' E 152°19'1 1.3 1014.1 25.9
2017-Nov-14 07:00S 20°56' E 152°20'0 0.0 1013.7 25.7
2017-Nov-14 06:00S 20°56' E 152°20'2 1.8 1013.0 25.8
2017-Nov-14 05:00S 20°56' E 152°22'1 0.6 1013.2 25.9
2017-Nov-14 04:00S 20°56' E 152°22'4 1.1 1013.8 25.8
2017-Nov-14 00:00S 21°01' E 152°23'0 0.0 1015.5 25.8
2017-Nov-13 23:00S 21°01' E 152°23'1 1.1 1015.4 25.7
2017-Nov-13 22:00S 21°01' E 152°22'1 0.8 1015.2 25.7
2017-Nov-13 21:00S 21°00' E 152°22'2 1.6 1014.5 25.7
2017-Nov-13 20:00S 20°59' E 152°23'0 0.0 1014.1 25.7
2017-Nov-13 18:00S 20°59' E 152°23'1 1.3 1013.1 25.7
2017-Nov-13 17:00S 20°59' E 152°25'3 1.5 1012.8 25.7
2017-Nov-13 15:00S 21°02' E 152°24'0 0.0 1014.1 25.7
2017-Nov-13 12:00S 21°02' E 152°24'0 0.0 1015.4 25.7
2017-Nov-13 11:00S 21°02' E 152°24'1 0.8 1015.3 25.7
2017-Nov-13 10:00S 21°03' E 152°23'0 0.0 1015.2 25.8
2017-Nov-13 09:00S 21°03' E 152°23'2 1.1 1014.6 25.9
2017-Nov-13 07:00S 21°01' E 152°25'0 0.0 1014.1 25.9
2017-Nov-13 06:00S 21°01' E 152°25'3 3.3 1013.5 25.9
2017-Nov-13 05:00S 20°59' E 152°28'5 4.5 1013.3 26.0
2017-Nov-13 04:00S 21°00' E 152°32'1 0.1 1013.6 25.9
2017-Nov-13 00:00S 21°00' E 152°33'1 1.2 1015.1 26.0
2017-Nov-12 23:00S 21°01' E 152°33'0 0.0 1015.1 26.0
2017-Nov-12 22:00S 21°01' E 152°33'0 0.0 1015.0 26.0
2017-Nov-12 21:00S 21°01' E 152°33'1 0.6 1015.2 26.1
2017-Nov-12 20:00S 21°02' E 152°33'1 0.7 1014.8 26.1
2017-Nov-12 18:00S 21°01' E 152°34'1 0.6 1014.0 26.1
2017-Nov-12 17:00S 21°00' E 152°34'3 2.9 1013.5 26.2
2017-Nov-12 16:00S 20°58' E 152°31'0 0.0 1013.8 26.2
2017-Nov-12 15:00S 20°58' E 152°31'1 0.2 1014.0 26.2
2017-Nov-12 12:00S 20°58' E 152°31'3 2.8 1015.6 26.3
2017-Nov-12 11:00S 20°58' E 152°28'0 0.0 1015.5 26.3
2017-Nov-12 10:00S 20°58' E 152°28'1 0.6 1015.0 26.3
2017-Nov-12 09:00S 20°58' E 152°29'3 2.9 1015.0 26.3
2017-Nov-12 08:00S 20°57' E 152°26'2 2.1 1014.3 26.3
2017-Nov-12 07:00S 20°56' E 152°24'0 0.0 1013.8 26.4
2017-Nov-12 06:00S 20°56' E 152°24'2 1.8 1013.5 26.4
2017-Nov-12 05:00S 20°54' E 152°24'0 0.0 1013.3 26.4
2017-Nov-12 04:00S 20°54' E 152°24'6 1.2 1013.8 26.4
2017-Nov-11 23:00S 20°52' E 152°18'2 1.8 1015.8 26.3
2017-Nov-11 22:00S 20°52' E 152°20'3 2.9 1015.4 26.3
2017-Nov-11 21:00S 20°52' E 152°17'0 0.0 1015.3 26.3
2017-Nov-11 20:00S 20°52' E 152°17'2 2.2 1014.5 26.3
2017-Nov-11 19:00S 20°52' E 152°14'0 0.0 1014.3 26.3
2017-Nov-11 18:00S 20°52' E 152°14'1 1.3 1013.7 26.3
2017-Nov-11 17:00S 20°52' E 152°13'   1013.3 26.3
Track history (hours):
 
Tides and Currents Weather Stations Pressure Air Temp Water Temp Dewpoint Dewpoint Depression Visibility Wind Speed Wind Dir Waves Ship Positions

Drifting buoy 55632

Last reported at 2017-Nov-21 17:00 UTC. Time now 2017-Nov-21 19:32 UTC.
Position S 21°02' E 151°35'.

Barometer 1008.9 mb
Water temperature 25.2 ° C

Date/timePositionNaut miles runAvg speedWind from/ knotsBaromVisibWave heightAir tempDewpointWater temp
2017-Nov-21 17:00S 21°02' E 151°35'1 0.6 1008.9 25.2
2017-Nov-21 16:00S 21°02' E 151°35'0 0.0 1009.3 25.4
2017-Nov-21 15:00S 21°02' E 151°35'2 0.6 1009.4 25.3
2017-Nov-21 12:00S 21°04' E 151°36'0 0.0 1012.0 25.6
2017-Nov-21 11:00S 21°04' E 151°36'1 0.3 1012.2 25.4
2017-Nov-21 09:00S 21°04' E 151°37'2 0.8 1011.9 25.5
2017-Nov-21 07:00S 21°03' E 151°38'1 0.6 1010.9 25.7
2017-Nov-21 06:00S 21°04' E 151°38'1 0.6 1011.1 25.8
2017-Nov-21 05:00S 21°04' E 151°38'1 0.6 1011.2 25.8
2017-Nov-21 04:00S 21°04' E 151°38'2 0.6 1011.5 25.8
2017-Nov-21 00:00S 21°06' E 151°38'1 0.6 1013.3 25.6
2017-Nov-20 23:00S 21°05' E 151°38'1 0.4 1013.3 25.6
2017-Nov-20 21:00S 21°05' E 151°39'1 0.8 1012.7 25.3
2017-Nov-20 20:00S 21°04' E 151°40'2 0.6 1012.1 25.5
2017-Nov-20 17:00S 21°04' E 151°41'0 0.0 1011.2 25.5
2017-Nov-20 16:00S 21°04' E 151°41'0 0.0 1011.7 25.6
2017-Nov-20 15:00S 21°04' E 151°41'4 1.3 1012.4 25.6
2017-Nov-20 12:00S 21°07' E 151°43'1 0.6 1013.5 25.5
2017-Nov-20 11:00S 21°07' E 151°43'0 0.0 1013.5 25.5
2017-Nov-20 10:00S 21°07' E 151°43'3 2.5 1013.5 25.5
2017-Nov-20 09:00S 21°06' E 151°46'0 0.0 1013.4 25.6
2017-Nov-20 08:00S 21°06' E 151°46'1 1.3 1012.9 25.8
2017-Nov-20 07:00S 21°05' E 151°46'1 1.3 1012.8 25.7
2017-Nov-20 06:00S 21°05' E 151°47'1 0.8 1012.2 25.6
2017-Nov-20 05:00S 21°06' E 151°48'6 6.2 1012.2 25.7
2017-Nov-20 04:00S 21°11' E 151°44'1 0.3 1012.7 25.6
2017-Nov-19 23:00S 21°12' E 151°44'0 0.0 1013.9 25.6
2017-Nov-19 22:00S 21°12' E 151°44'2 1.7 1013.8 25.6
2017-Nov-19 21:00S 21°12' E 151°46'1 1.1 1013.4 25.6
2017-Nov-19 20:00S 21°12' E 151°47'1 0.6 1012.7 25.6
2017-Nov-19 18:00S 21°12' E 151°49'0 0.0 1011.3 25.6
2017-Nov-19 17:00S 21°12' E 151°49'0 0.0 1011.4 25.6
2017-Nov-19 16:00S 21°12' E 151°49'1 0.6 1011.6 25.6
2017-Nov-19 15:00S 21°12' E 151°48'2 0.8 1011.9 25.6
2017-Nov-19 12:00S 21°14' E 151°47'2 2.1 1013.2 25.6
2017-Nov-19 11:00S 21°13' E 151°49'3 2.6 1013.4 25.6
2017-Nov-19 10:00S 21°11' E 151°50'2 2.1 1012.9 25.6
2017-Nov-19 09:00S 21°09' E 151°52'2 1.6 1012.6 25.6
2017-Nov-19 08:00S 21°08' E 151°53'1 0.6 1012.3 25.8
2017-Nov-19 06:00S 21°08' E 151°54'1 0.8 1010.9 25.6
2017-Nov-19 05:00S 21°08' E 151°55'0 0.0 1011.1 25.6
2017-Nov-19 04:00S 21°08' E 151°55'5 1.4 1011.7 25.6
2017-Nov-19 00:00S 21°14' E 151°55'2 1.9 1012.5 25.6
2017-Nov-18 23:00S 21°12' E 151°55'0 0.0 1012.6 25.7
2017-Nov-18 22:00S 21°12' E 151°55'3 2.6 1012.0 25.6
2017-Nov-18 21:00S 21°10' E 151°56'2 2.1 1011.9 25.6
2017-Nov-18 20:00S 21°08' E 151°58'1 0.6 1011.3 25.6
2017-Nov-18 19:00S 21°08' E 151°58'2 1.6 1010.5 25.6
2017-Nov-18 18:00S 21°09' E 151°59'0 0.0 1010.3 25.6
2017-Nov-18 17:00S 21°09' E 151°59'0 0.0 1010.0 25.6
2017-Nov-18 16:00S 21°09' E 151°59'3 0.7 1010.4 25.7
2017-Nov-18 12:00S 21°11' E 151°57'1 0.6 1012.4 25.6
2017-Nov-18 11:00S 21°11' E 151°56'2 2.4 1012.0 25.6
2017-Nov-18 10:00S 21°09' E 151°56'1 1.2 1011.8 25.7
2017-Nov-18 09:00S 21°08' E 151°56'3 2.6 1011.3 25.8
2017-Nov-18 08:00S 21°05' E 151°58'0 0.0 1011.0 25.8
2017-Nov-18 07:00S 21°05' E 151°58'1 0.8 1010.3 25.9
2017-Nov-18 06:00S 21°06' E 151°58'1 0.8 1010.0 26.1
2017-Nov-18 05:00S 21°05' E 151°59'0 0.0 1010.4 26.1
2017-Nov-18 04:00S 21°05' E 151°59'2 0.6 1010.9 26.1
2017-Nov-18 00:00S 21°07' E 151°57'0 0.0 1013.1 25.7
2017-Nov-17 23:00S 21°07' E 151°57'1 1.2 1013.0 25.7
2017-Nov-17 22:00S 21°06' E 151°57'0 0.0 1013.1 25.6
2017-Nov-17 21:00S 21°06' E 151°57'2 2.5 1012.7 25.6
2017-Nov-17 20:00S 21°04' E 151°58'1 0.6 1011.9 25.6
2017-Nov-17 19:00S 21°04' E 151°58'2 1.8 1011.2 25.6
2017-Nov-17 18:00S 21°03' E 152°00'0 0.0 1010.9 25.6
2017-Nov-17 17:00S 21°03' E 152°00'2 2.5 1010.7 25.6
2017-Nov-17 16:00S 21°05' E 152°01'0 0.0 1011.3 25.7
2017-Nov-17 12:00S 21°05' E 152°01'2 1.8 1012.9 25.6
2017-Nov-17 11:00S 21°04' E 152°01'0 0.0 1012.4 25.7
2017-Nov-17 10:00S 21°04' E 152°01'2 1.9 1012.4 25.7
2017-Nov-17 09:00S 21°02' E 152°01'2 0.8 1012.1 25.7
2017-Nov-17 07:00S 21°02' E 152°03'2 2.1 1012.1 25.8
2017-Nov-17 06:00S 21°01' E 152°05'0 0.0 1011.7 25.9
2017-Nov-17 05:00S 21°01' E 152°05'5 0.8 1012.2 25.9
2017-Nov-16 23:00S 21°04' E 152°08'1 1.3 1013.7 25.8
2017-Nov-16 22:00S 21°04' E 152°09'1 1.2 1013.3 -0.0
2017-Nov-16 21:00S 21°02' E 152°09'1 0.8 1013.3 25.7
2017-Nov-16 20:00S 21°02' E 152°10'3 1.0 1012.7 25.6
2017-Nov-16 17:00S 21°01' E 152°13'0 0.0 1012.0 25.6
2017-Nov-16 16:00S 21°01' E 152°13'1 0.2 1012.3 25.6
2017-Nov-16 11:00S 21°01' E 152°11'0 0.0 1013.8 25.7
2017-Nov-16 10:00S 21°01' E 152°11'2 1.6 1013.2 25.7
2017-Nov-16 09:00S 21°00' E 152°13'1 0.8 1013.0 25.7
2017-Nov-16 08:00S 20°59' E 152°13'1 1.3 1012.7 25.7
2017-Nov-16 07:00S 20°59' E 152°14'2 1.2 1012.1 25.8
2017-Nov-16 05:00S 20°59' E 152°12'2 0.3 1011.9 25.9
2017-Nov-16 00:00S 21°01' E 152°13'1 0.6 1013.6 25.9
2017-Nov-15 23:00S 21°01' E 152°14'1 0.4 1013.8 25.8
2017-Nov-15 21:00S 21°00' E 152°14'2 2.1 1013.1 25.8
2017-Nov-15 20:00S 20°59' E 152°16'0 0.0 1012.4 25.8
2017-Nov-15 19:00S 20°59' E 152°16'1 1.2 1012.1 25.7
2017-Nov-15 18:00S 20°58' E 152°16'2 1.8 1012.1 25.8
2017-Nov-15 17:00S 20°59' E 152°16'2 1.8 1012.1 25.8
2017-Nov-15 16:00S 20°58' E 152°16'2 0.4 1012.3 25.8
2017-Nov-15 12:00S 20°59' E 152°16'1 0.6 1014.8 25.8
2017-Nov-15 11:00S 20°59' E 152°16'1 0.6 1014.6 25.8
2017-Nov-15 10:00S 20°59' E 152°16'0 0.0 1014.0 25.8
2017-Nov-15 09:00S 20°59' E 152°16'3 2.9 1013.8 25.9
2017-Nov-15 08:00S 20°57' E 152°18'1 0.4 1013.3 25.9
2017-Nov-15 06:00S 20°58' E 152°19'0 0.0 1012.4 25.9
2017-Nov-15 05:00S 20°58' E 152°19'2 0.4 1012.5 25.9
2017-Nov-14 23:00S 21°00' E 152°18'1 0.6 1015.3 25.8
2017-Nov-14 22:00S 21°00' E 152°17'0 0.0 1014.9 25.8
2017-Nov-14 21:00S 21°00' E 152°17'3 3.3 1014.2 25.8
2017-Nov-14 20:00S 20°58' E 152°20'3 3.0 1013.6 25.8
2017-Nov-14 19:00S 20°56' E 152°23'3 1.3 1013.1 25.6
2017-Nov-14 17:00S 20°59' E 152°22'3 2.6 1012.6 25.8
2017-Nov-14 16:00S 20°56' E 152°23'3 0.7 1012.8 25.8
2017-Nov-14 12:00S 20°59' E 152°22'2 1.8 1015.9 25.8
2017-Nov-14 11:00S 20°59' E 152°20'1 1.3 1015.4 25.8
2017-Nov-14 10:00S 20°58' E 152°19'1 0.6 1015.0 25.8
2017-Nov-14 09:00S 20°58' E 152°20'2 2.5 1014.6 25.9
2017-Nov-14 08:00S 20°56' E 152°19'1 1.3 1014.1 25.9
2017-Nov-14 07:00S 20°56' E 152°20'0 0.0 1013.7 25.7
2017-Nov-14 06:00S 20°56' E 152°20'2 1.8 1013.0 25.8
2017-Nov-14 05:00S 20°56' E 152°22'1 0.6 1013.2 25.9
2017-Nov-14 04:00S 20°56' E 152°22'4 1.1 1013.8 25.8
2017-Nov-14 00:00S 21°01' E 152°23'0 0.0 1015.5 25.8
2017-Nov-13 23:00S 21°01' E 152°23'1 1.1 1015.4 25.7
2017-Nov-13 22:00S 21°01' E 152°22'1 0.8 1015.2 25.7
2017-Nov-13 21:00S 21°00' E 152°22'2 1.6 1014.5 25.7
2017-Nov-13 20:00S 20°59' E 152°23'0 0.0 1014.1 25.7
2017-Nov-13 18:00S 20°59' E 152°23'1 1.3 1013.1 25.7
2017-Nov-13 17:00S 20°59' E 152°25'3 1.5 1012.8 25.7
2017-Nov-13 15:00S 21°02' E 152°24'0 0.0 1014.1 25.7
2017-Nov-13 12:00S 21°02' E 152°24'0 0.0 1015.4 25.7
2017-Nov-13 11:00S 21°02' E 152°24'1 0.8 1015.3 25.7
2017-Nov-13 10:00S 21°03' E 152°23'0 0.0 1015.2 25.8
2017-Nov-13 09:00S 21°03' E 152°23'2 1.1 1014.6 25.9
2017-Nov-13 07:00S 21°01' E 152°25'0 0.0 1014.1 25.9
2017-Nov-13 06:00S 21°01' E 152°25'3 3.3 1013.5 25.9
2017-Nov-13 05:00S 20°59' E 152°28'5 4.5 1013.3 26.0
2017-Nov-13 04:00S 21°00' E 152°32'1 0.1 1013.6 25.9
2017-Nov-13 00:00S 21°00' E 152°33'1 1.2 1015.1 26.0
2017-Nov-12 23:00S 21°01' E 152°33'0 0.0 1015.1 26.0
2017-Nov-12 22:00S 21°01' E 152°33'0 0.0 1015.0 26.0
2017-Nov-12 21:00S 21°01' E 152°33'1 0.6 1015.2 26.1
2017-Nov-12 20:00S 21°02' E 152°33'1 0.7 1014.8 26.1
2017-Nov-12 18:00S 21°01' E 152°34'1 0.6 1014.0 26.1
2017-Nov-12 17:00S 21°00' E 152°34'3 2.9 1013.5 26.2
2017-Nov-12 16:00S 20°58' E 152°31'0 0.0 1013.8 26.2
2017-Nov-12 15:00S 20°58' E 152°31'1 0.2 1014.0 26.2
2017-Nov-12 12:00S 20°58' E 152°31'3 2.8 1015.6 26.3
2017-Nov-12 11:00S 20°58' E 152°28'0 0.0 1015.5 26.3
2017-Nov-12 10:00S 20°58' E 152°28'1 0.6 1015.0 26.3
2017-Nov-12 09:00S 20°58' E 152°29'3 2.9 1015.0 26.3
2017-Nov-12 08:00S 20°57' E 152°26'2 2.1 1014.3 26.3
2017-Nov-12 07:00S 20°56' E 152°24'0 0.0 1013.8 26.4
2017-Nov-12 06:00S 20°56' E 152°24'2 1.8 1013.5 26.4
2017-Nov-12 05:00S 20°54' E 152°24'0 0.0 1013.3 26.4
2017-Nov-12 04:00S 20°54' E 152°24'6 1.2 1013.8 26.4
2017-Nov-11 23:00S 20°52' E 152°18'2 1.8 1015.8 26.3
2017-Nov-11 22:00S 20°52' E 152°20'3 2.9 1015.4 26.3
2017-Nov-11 21:00S 20°52' E 152°17'0 0.0 1015.3 26.3
2017-Nov-11 20:00S 20°52' E 152°17'2 2.2 1014.5 26.3
2017-Nov-11 19:00S 20°52' E 152°14'0 0.0 1014.3 26.3
2017-Nov-11 18:00S 20°52' E 152°14'1 1.3 1013.7 26.3
2017-Nov-11 17:00S 20°52' E 152°13'   1013.3 26.3

Dump ship's entire track history